Hierro Island, Spain
Current Conditions -  °F | °C
As of 4:00 PM on Thursday 30 Oct 2014 (Local Time) from GCLA Reporting Station
Broken Clouds Broken Clouds  
Wind Chill: 77°   Ceiling: 5000
Heat Index: 79°   Visibility: 6mi
Dew Point: 63°   Wind: 0mph
Humidity: 61%   Direction: NA
Pressure: 29.97"   Gusts: NA
Location:  27.82°N, 17.88°W
Report Text: GCLA 301600Z 00000KT 9999 FEW025 BKN050 25/17 Q1015
Loading
Personal Weather Stations






























Interactive Weather Map
Tropical Storm Tracking
New forecast layout! Learn more

10-Day Weather Forecast

Advertisements
Track Severe Weather on mobile